createdAt,value
2023-05-23T00:01:01.740Z,6.67
2023-05-23T00:03:31.548Z,6.90
2023-05-23T00:06:00.112Z,6.17
2023-05-23T00:08:28.374Z,6.30
2023-05-23T00:10:58.708Z,6.07
2023-05-23T00:13:28.995Z,5.80
2023-05-23T00:15:57.380Z,5.57
2023-05-23T00:18:27.115Z,6.63
2023-05-23T00:20:55.236Z,7.07
2023-05-23T00:23:25.399Z,7.20
2023-05-23T00:25:54.194Z,6.80
2023-05-23T00:28:47.855Z,6.57
2023-05-23T00:31:19.745Z,8.47
2023-05-23T00:33:49.471Z,7.23
2023-05-23T00:36:18.389Z,6.03
2023-05-23T00:38:46.959Z,7.03
2023-05-23T00:41:18.569Z,7.47
2023-05-23T00:43:46.791Z,6.77
2023-05-23T00:46:15.821Z,7.77
2023-05-23T00:48:44.524Z,7.37
2023-05-23T00:51:14.673Z,6.70
2023-05-23T00:53:45.107Z,7.90
2023-05-23T00:56:13.840Z,6.87
2023-05-23T00:58:42.597Z,7.20
2023-05-23T01:01:12.860Z,6.40
2023-05-23T01:03:41.152Z,5.80
2023-05-23T01:06:13.197Z,6.73
2023-05-23T01:08:42.233Z,6.57
2023-05-23T01:11:21.968Z,7.30
2023-05-23T01:14:00.357Z,7.50
2023-05-23T01:16:36.471Z,7.47
2023-05-23T01:19:18.300Z,7.83
2023-05-23T01:21:54.991Z,11.10
2023-05-23T01:24:37.755Z,7.90
2023-05-23T01:27:15.421Z,11.50
2023-05-23T01:29:58.263Z,10.37
2023-05-23T01:32:30.755Z,8.97
2023-05-23T01:35:01.878Z,10.97
2023-05-23T01:37:30.517Z,10.10
2023-05-23T01:39:58.789Z,11.10
2023-05-23T01:42:28.115Z,10.70
2023-05-23T01:44:59.674Z,10.53
2023-05-23T01:47:28.648Z,12.30
2023-05-23T01:49:59.110Z,10.53
2023-05-23T01:52:30.719Z,10.70
2023-05-23T01:54:59.768Z,12.63
2023-05-23T01:57:30.501Z,10.37
2023-05-23T02:00:02.814Z,14.37
2023-05-23T02:02:43.163Z,13.83
2023-05-23T02:05:12.175Z,14.43
2023-05-23T02:07:42.828Z,16.90
2023-05-23T02:10:11.295Z,15.27
2023-05-23T02:12:39.700Z,18.63
2023-05-23T02:15:12.609Z,17.93
2023-05-23T02:17:41.459Z,16.70
2023-05-23T02:20:11.171Z,21.70
2023-05-23T02:22:39.916Z,19.10
2023-05-23T02:25:10.928Z,16.40
2023-05-23T02:27:40.889Z,16.77
2023-05-23T02:30:10.128Z,15.73
2023-05-23T02:32:39.755Z,16.17
2023-05-23T02:35:10.935Z,15.23
2023-05-23T02:37:39.216Z,16.00
2023-05-23T02:40:08.776Z,18.97
2023-05-23T02:42:37.841Z,15.50
2023-05-23T02:45:06.871Z,13.17
2023-05-23T02:47:39.222Z,12.57
2023-05-23T02:50:08.796Z,11.63
2023-05-23T02:52:39.996Z,12.30
2023-05-23T02:55:11.429Z,13.97
2023-05-23T02:57:44.040Z,11.40
2023-05-23T03:00:15.713Z,11.47
2023-05-23T03:02:49.986Z,11.13
2023-05-23T03:05:18.250Z,10.10
2023-05-23T03:07:48.909Z,9.67
2023-05-23T03:10:20.041Z,10.93
2023-05-23T03:12:48.468Z,9.57
2023-05-23T03:15:18.168Z,9.33
2023-05-23T03:17:46.928Z,9.43
2023-05-23T03:20:18.732Z,8.30
2023-05-23T03:22:46.837Z,8.30
2023-05-23T03:25:16.874Z,8.17
2023-05-23T03:27:45.021Z,8.47
2023-05-23T03:30:14.189Z,8.43
2023-05-23T03:32:45.410Z,6.77
2023-05-23T03:35:16.059Z,7.67
2023-05-23T03:37:45.612Z,6.90
2023-05-23T03:40:13.822Z,7.70
2023-05-23T03:42:42.078Z,8.23
2023-05-23T03:45:12.752Z,8.73
2023-05-23T03:47:43.973Z,8.70
2023-05-23T03:50:12.508Z,8.33
2023-05-23T03:52:40.757Z,9.73
2023-05-23T03:55:13.286Z,8.50
2023-05-23T03:57:41.497Z,9.37
2023-05-23T04:00:12.108Z,10.50
2023-05-23T04:02:46.219Z,12.20
2023-05-23T04:05:17.938Z,13.00
2023-05-23T04:07:46.764Z,10.70
2023-05-23T04:10:18.729Z,12.17
2023-05-23T04:12:49.660Z,11.73
2023-05-23T04:15:21.544Z,13.00
2023-05-23T04:17:58.798Z,10.40
2023-05-23T04:20:28.291Z,12.93
2023-05-23T04:22:58.728Z,15.47
2023-05-23T04:25:29.452Z,13.37
2023-05-23T04:28:23.794Z,12.33
2023-05-23T04:30:51.997Z,12.60
2023-05-23T04:33:23.633Z,12.40
2023-05-23T04:35:54.279Z,13.47
2023-05-23T04:38:25.170Z,12.20
2023-05-23T04:40:58.702Z,13.00
2023-05-23T04:43:46.133Z,12.50
2023-05-23T04:46:29.956Z,13.67
2023-05-23T04:49:38.356Z,12.50
2023-05-23T04:52:27.537Z,11.60
2023-05-23T04:54:56.137Z,16.50
2023-05-23T04:57:26.125Z,11.13
2023-05-23T04:59:55.464Z,12.83
2023-05-23T05:02:23.877Z,11.93
2023-05-23T05:04:52.259Z,13.23
2023-05-23T05:07:23.125Z,10.70
2023-05-23T05:09:54.285Z,10.00
2023-05-23T05:12:22.553Z,10.80
2023-05-23T05:14:52.100Z,10.10
2023-05-23T05:17:24.988Z,17.17
2023-05-23T05:20:08.527Z,11.90
2023-05-23T05:22:40.274Z,14.30
2023-05-23T05:25:12.608Z,10.60
2023-05-23T05:27:41.252Z,7.78
2023-05-23T05:30:14.959Z,6.60
2023-05-23T05:32:51.682Z,9.77
2023-05-23T05:35:19.887Z,6.47
2023-05-23T05:37:48.377Z,5.50
2023-05-23T05:40:16.593Z,7.87
2023-05-23T05:42:47.177Z,4.53
2023-05-23T05:45:17.684Z,4.97
2023-05-23T05:47:47.086Z,4.40
2023-05-23T05:50:15.274Z,2.93
2023-05-23T05:52:43.883Z,3.43
2023-05-23T05:55:13.674Z,4.47
2023-05-23T05:57:46.641Z,4.53
2023-05-23T06:00:21.942Z,3.30
2023-05-23T06:02:57.622Z,2.77
2023-05-23T06:05:48.948Z,3.87
2023-05-23T06:08:20.105Z,2.53
2023-05-23T06:10:51.457Z,2.30
2023-05-23T06:13:21.850Z,3.50
2023-05-23T06:15:55.708Z,3.93
2023-05-23T06:18:26.408Z,5.70
2023-05-23T06:20:54.624Z,4.67
2023-05-23T06:23:23.629Z,3.07
2023-05-23T06:25:51.838Z,3.13
2023-05-23T06:28:22.114Z,3.23
2023-05-23T06:30:51.947Z,2.43
2023-05-23T06:33:21.718Z,3.67
2023-05-23T06:35:52.172Z,2.93
2023-05-23T06:38:20.375Z,3.73
2023-05-23T06:40:48.734Z,2.90
2023-05-23T06:43:17.125Z,3.30
2023-05-23T06:45:53.524Z,2.83
2023-05-23T06:48:25.580Z,4.43
2023-05-23T06:50:54.641Z,4.73
2023-05-23T06:53:23.633Z,2.70
2023-05-23T06:55:52.461Z,2.83
2023-05-23T06:58:25.131Z,3.93
2023-05-23T07:00:53.561Z,2.70
2023-05-23T07:03:31.653Z,3.57
2023-05-23T07:06:03.687Z,4.60
2023-05-23T07:08:32.669Z,5.47
2023-05-23T07:11:06.329Z,6.23
2023-05-23T07:13:41.043Z,4.00
2023-05-23T07:16:11.842Z,5.23
2023-05-23T07:18:52.020Z,4.10
2023-05-23T07:21:20.233Z,6.70
2023-05-23T07:23:48.833Z,7.73
2023-05-23T07:26:17.006Z,6.30
2023-05-23T07:28:50.482Z,7.33
2023-05-23T07:31:18.739Z,9.83
2023-05-23T07:33:46.889Z,9.40
2023-05-23T07:36:23.825Z,8.87
2023-05-23T07:38:54.754Z,11.20
2023-05-23T07:41:23.365Z,11.97
2023-05-23T07:43:51.909Z,8.10
2023-05-23T07:46:22.932Z,9.80
2023-05-23T07:48:51.155Z,10.63
2023-05-23T07:51:21.453Z,7.37
2023-05-23T07:53:52.535Z,8.73
2023-05-23T07:56:23.284Z,9.17
2023-05-23T07:58:53.941Z,6.63
2023-05-23T08:01:22.731Z,5.63
2023-05-23T08:04:09.034Z,6.43
2023-05-23T08:07:00.766Z,11.03
2023-05-23T08:09:42.019Z,5.57
2023-05-23T08:12:12.644Z,4.80
2023-05-23T08:14:50.629Z,5.07
2023-05-23T08:17:33.431Z,6.77
2023-05-23T08:20:05.296Z,7.30
2023-05-23T08:22:36.152Z,8.03
2023-05-23T08:25:07.623Z,6.60
2023-05-23T08:27:38.493Z,9.40
2023-05-23T08:30:17.240Z,8.20
2023-05-23T08:32:48.431Z,6.83
2023-05-23T08:35:16.817Z,9.57
2023-05-23T08:37:46.164Z,10.03
2023-05-23T08:40:21.360Z,12.37
2023-05-23T08:42:57.928Z,8.30
2023-05-23T08:45:27.047Z,8.83
2023-05-23T08:47:56.751Z,10.23
2023-05-23T08:50:29.617Z,12.43
2023-05-23T08:52:59.260Z,12.40
2023-05-23T08:55:31.565Z,17.17
2023-05-23T08:58:03.628Z,11.03
2023-05-23T09:00:53.761Z,10.73
2023-05-23T09:03:23.844Z,13.60
2023-05-23T09:06:08.937Z,10.50
2023-05-23T09:08:40.793Z,9.27
2023-05-23T09:11:13.875Z,9.30
2023-05-23T09:13:43.455Z,9.37
2023-05-23T09:16:17.987Z,9.83
2023-05-23T09:18:58.180Z,13.70
2023-05-23T09:21:29.081Z,6.60
2023-05-23T09:24:07.340Z,11.37
2023-05-23T09:26:37.245Z,8.70
2023-05-23T09:29:07.292Z,7.60
2023-05-23T09:31:35.782Z,8.77
2023-05-23T09:34:10.853Z,9.40
2023-05-23T09:36:44.141Z,10.63
2023-05-23T09:39:14.013Z,13.07
2023-05-23T09:41:43.699Z,9.53
2023-05-23T09:44:15.961Z,9.43
2023-05-23T09:46:44.192Z,10.70
2023-05-23T09:49:19.201Z,11.57
2023-05-23T09:51:59.296Z,11.70
2023-05-23T09:54:29.941Z,11.30
2023-05-23T09:57:01.453Z,9.47
2023-05-23T09:59:32.591Z,6.77
2023-05-23T10:02:03.554Z,10.23
2023-05-23T10:04:35.525Z,12.93
2023-05-23T10:07:14.468Z,9.93
2023-05-23T10:09:50.827Z,11.57
2023-05-23T10:12:45.807Z,12.93
2023-05-23T10:15:18.064Z,13.67
2023-05-23T10:18:03.812Z,8.70
2023-05-23T10:20:34.088Z,12.73
2023-05-23T10:23:05.229Z,14.87
2023-05-23T10:25:34.613Z,13.03
2023-05-23T10:28:05.107Z,12.50
2023-05-23T10:30:33.620Z,9.67
2023-05-23T10:33:05.613Z,15.07
2023-05-23T10:35:52.216Z,18.80
2023-05-23T10:38:31.801Z,12.13
2023-05-23T10:41:09.664Z,13.20
2023-05-23T10:43:49.981Z,7.33
2023-05-23T10:46:22.799Z,11.77
2023-05-23T10:48:57.771Z,11.27
2023-05-23T10:51:40.022Z,10.80
2023-05-23T10:54:12.731Z,8.53
2023-05-23T10:56:44.057Z,10.70
2023-05-23T10:59:21.934Z,8.37
2023-05-23T11:01:53.319Z,12.53
2023-05-23T11:04:27.809Z,8.80
2023-05-23T11:06:59.467Z,11.17
2023-05-23T11:09:27.717Z,9.67
2023-05-23T11:12:06.692Z,12.47
2023-05-23T11:14:55.603Z,10.73
2023-05-23T11:17:34.846Z,10.50
2023-05-23T11:20:07.086Z,10.50
2023-05-23T11:22:36.172Z,10.50
2023-05-23T11:25:10.037Z,10.97
2023-05-23T11:27:39.649Z,13.47
2023-05-23T11:30:14.582Z,13.80
2023-05-23T11:32:52.613Z,11.80
2023-05-23T11:35:22.205Z,7.43
2023-05-23T11:37:54.106Z,8.63
2023-05-23T11:40:32.794Z,8.33
2023-05-23T11:43:02.186Z,11.37
2023-05-23T11:45:35.045Z,11.67
2023-05-23T11:48:09.432Z,7.47
2023-05-23T11:50:46.128Z,11.90
2023-05-23T11:53:20.528Z,9.50
2023-05-23T11:55:53.645Z,15.13
2023-05-23T11:58:22.945Z,9.57
2023-05-23T12:01:00.340Z,8.33
2023-05-23T12:03:31.892Z,13.33
2023-05-23T12:06:00.907Z,11.57
2023-05-23T12:08:31.619Z,7.80
2023-05-23T12:11:02.520Z,11.47
2023-05-23T12:13:31.416Z,14.93
2023-05-23T12:16:02.994Z,11.27
2023-05-23T12:18:33.538Z,13.27
2023-05-23T12:21:06.043Z,14.83
2023-05-23T12:23:35.496Z,11.83
2023-05-23T12:26:07.291Z,9.37
2023-05-23T12:28:37.369Z,9.67
2023-05-23T12:31:14.743Z,9.97
2023-05-23T12:33:44.656Z,10.13
2023-05-23T12:36:13.387Z,12.03
2023-05-23T12:38:45.261Z,10.30
2023-05-23T12:41:16.544Z,11.13
2023-05-23T12:43:52.560Z,7.77
2023-05-23T12:46:22.901Z,8.40
2023-05-23T12:48:54.696Z,8.37
2023-05-23T12:51:23.197Z,10.07
2023-05-23T12:53:51.904Z,10.73
2023-05-23T12:56:22.500Z,9.67
2023-05-23T12:58:53.896Z,9.83
2023-05-23T13:01:23.634Z,7.67
2023-05-23T13:03:52.074Z,7.30
2023-05-23T13:06:20.364Z,9.00
2023-05-23T13:08:50.312Z,13.13
2023-05-23T13:11:22.540Z,8.37
2023-05-23T13:13:50.984Z,10.43
2023-05-23T13:16:19.242Z,7.70
2023-05-23T13:18:49.022Z,9.60
2023-05-23T13:21:17.360Z,8.37
2023-05-23T13:23:47.948Z,9.90
2023-05-23T13:26:18.477Z,9.07
2023-05-23T13:28:46.731Z,11.30
2023-05-23T13:31:15.033Z,10.63
2023-05-23T13:33:43.316Z,11.93
2023-05-23T13:36:12.867Z,8.70
2023-05-23T13:38:41.121Z,5.83
2023-05-23T13:41:09.397Z,9.13
2023-05-23T13:43:37.566Z,13.13
2023-05-23T13:46:05.883Z,9.65
2023-05-23T13:48:36.665Z,10.87
2023-05-23T13:51:05.057Z,10.27
2023-05-23T13:53:34.789Z,9.20
2023-05-23T13:56:03.397Z,9.30
2023-05-23T13:58:32.935Z,8.00
2023-05-23T14:01:03.692Z,8.77
2023-05-23T14:03:34.834Z,8.33
2023-05-23T14:06:04.904Z,9.33
2023-05-23T14:08:34.736Z,8.97
2023-05-23T14:11:03.062Z,7.73
2023-05-23T14:13:31.282Z,5.80
2023-05-23T14:15:59.491Z,10.50
2023-05-23T14:18:30.128Z,11.03
2023-05-23T14:20:58.515Z,8.07
2023-05-23T14:23:28.896Z,10.17
2023-05-23T14:26:00.710Z,8.23
2023-05-23T14:28:28.938Z,13.07
2023-05-23T14:30:57.488Z,8.80
2023-05-23T14:33:25.744Z,11.83
2023-05-23T14:35:54.237Z,9.70
2023-05-23T14:38:22.548Z,9.17
2023-05-23T14:40:54.742Z,7.73
2023-05-23T14:43:26.466Z,15.57
2023-05-23T14:45:57.047Z,10.57
2023-05-23T14:48:27.696Z,8.23
2023-05-23T14:50:55.886Z,13.93
2023-05-23T14:53:24.092Z,8.07
2023-05-23T14:55:55.353Z,9.20
2023-05-23T14:58:25.769Z,8.63
2023-05-23T15:00:55.297Z,9.57
2023-05-23T15:03:25.790Z,11.23
2023-05-23T15:05:54.179Z,8.80
2023-05-23T15:08:22.405Z,8.93
2023-05-23T15:10:50.685Z,8.50
2023-05-23T15:13:19.021Z,9.63
2023-05-23T15:15:50.283Z,8.87
2023-05-23T15:18:28.161Z,8.63
2023-05-23T15:21:06.574Z,7.90
2023-05-23T15:23:34.730Z,6.57
2023-05-23T15:26:02.906Z,8.87
2023-05-23T15:28:31.426Z,7.23
2023-05-23T15:31:02.224Z,9.63
2023-05-23T15:33:34.853Z,6.90
2023-05-23T15:36:03.135Z,8.00
2023-05-23T15:38:31.710Z,8.43
2023-05-23T15:41:03.317Z,6.97
2023-05-23T15:43:32.606Z,6.93
2023-05-23T15:46:01.472Z,7.83
2023-05-23T15:48:29.652Z,8.87
2023-05-23T15:50:59.221Z,8.13
2023-05-23T15:53:34.274Z,5.57
2023-05-23T15:56:05.648Z,10.37
2023-05-23T15:58:34.339Z,5.70
2023-05-23T16:01:02.814Z,9.33
2023-05-23T16:03:31.024Z,5.97
2023-05-23T16:06:03.143Z,9.00
2023-05-23T16:08:31.511Z,11.77
2023-05-23T16:11:00.396Z,7.63
2023-05-23T16:13:30.828Z,5.23
2023-05-23T16:16:00.235Z,6.57
2023-05-23T16:18:31.154Z,6.30
2023-05-23T16:20:59.632Z,5.27
2023-05-23T16:23:29.426Z,8.97
2023-05-23T16:25:57.833Z,8.17
2023-05-23T16:28:28.833Z,9.97
2023-05-23T16:30:57.485Z,5.47
2023-05-23T16:33:25.862Z,6.30
2023-05-23T16:35:54.095Z,7.40
2023-05-23T16:38:24.756Z,11.47
2023-05-23T16:40:54.329Z,6.93
2023-05-23T16:43:22.526Z,7.27
2023-05-23T16:45:50.867Z,8.47
2023-05-23T16:48:20.341Z,7.17
2023-05-23T16:50:48.507Z,6.23
2023-05-23T16:53:16.730Z,7.80
2023-05-23T16:55:46.208Z,8.87
2023-05-23T16:58:16.629Z,6.07
2023-05-23T17:00:46.258Z,5.53
2023-05-23T17:03:16.924Z,6.87
2023-05-23T17:05:45.422Z,7.67
2023-05-23T17:08:16.360Z,5.23
2023-05-23T17:10:44.916Z,7.70
2023-05-23T17:13:13.138Z,7.40
2023-05-23T17:15:43.010Z,5.37
2023-05-23T17:18:13.925Z,5.67
2023-05-23T17:20:44.694Z,5.10
2023-05-23T17:23:12.870Z,4.13
2023-05-23T17:25:43.664Z,9.20
2023-05-23T17:28:12.121Z,7.17
2023-05-23T17:30:43.936Z,12.30
2023-05-23T17:33:12.478Z,10.47
2023-05-23T17:35:40.873Z,12.43
2023-05-23T17:38:09.181Z,6.93
2023-05-23T17:40:40.206Z,6.93
2023-05-23T17:43:08.777Z,8.20
2023-05-23T17:45:37.227Z,6.63
2023-05-23T17:48:07.365Z,9.50
2023-05-23T17:50:35.921Z,11.90
2023-05-23T17:53:04.525Z,7.07
2023-05-23T17:55:32.763Z,9.10
2023-05-23T17:58:01.203Z,6.60
2023-05-23T18:00:31.707Z,6.30
2023-05-23T18:03:07.014Z,8.10
2023-05-23T18:05:35.308Z,11.97
2023-05-23T18:08:03.781Z,5.70
2023-05-23T18:10:34.244Z,9.50
2023-05-23T18:13:04.947Z,9.20
2023-05-23T18:15:33.278Z,6.60
2023-05-23T18:18:04.123Z,6.47
2023-05-23T18:20:33.750Z,7.27
2023-05-23T18:23:02.170Z,7.33
2023-05-23T18:25:30.828Z,8.87
2023-05-23T18:28:01.333Z,7.33
2023-05-23T18:30:31.034Z,7.97
2023-05-23T18:32:59.597Z,6.87
2023-05-23T18:35:27.863Z,6.57
2023-05-23T18:37:57.564Z,7.70
2023-05-23T18:40:27.128Z,8.77
2023-05-23T18:42:55.820Z,6.70
2023-05-23T18:45:24.628Z,7.07
2023-05-23T18:47:53.397Z,8.73
2023-05-23T18:50:21.722Z,8.77
2023-05-23T18:52:50.225Z,8.50
2023-05-23T18:55:22.014Z,6.40
2023-05-23T18:57:50.587Z,5.83
2023-05-23T19:00:19.013Z,8.63
2023-05-23T19:02:49.611Z,8.87
2023-05-23T19:05:20.102Z,5.93
2023-05-23T19:07:51.316Z,6.63
2023-05-23T19:10:21.062Z,5.33
2023-05-23T19:12:49.276Z,6.80
2023-05-23T19:15:17.786Z,9.10
2023-05-23T19:17:46.566Z,8.57
2023-05-23T19:20:19.994Z,7.10
2023-05-23T19:22:51.803Z,8.37
2023-05-23T19:25:23.227Z,10.83
2023-05-23T19:27:51.609Z,5.17
2023-05-23T19:30:22.156Z,6.87
2023-05-23T19:32:53.056Z,7.97
2023-05-23T19:35:23.972Z,7.00
2023-05-23T19:37:52.311Z,7.30
2023-05-23T19:40:22.501Z,8.30
2023-05-23T19:42:50.818Z,8.00
2023-05-23T19:45:19.557Z,8.83
2023-05-23T19:47:50.324Z,3.73
2023-05-23T19:50:22.460Z,8.87
2023-05-23T19:52:51.356Z,10.30
2023-05-23T19:55:19.562Z,5.57
2023-05-23T19:57:49.363Z,6.77
2023-05-23T20:00:18.346Z,7.13
2023-05-23T20:02:47.417Z,11.10
2023-05-23T20:05:17.957Z,6.73
2023-05-23T20:07:46.567Z,10.83
2023-05-23T20:10:15.196Z,8.20
2023-05-23T20:12:43.428Z,9.00
2023-05-23T20:15:15.849Z,9.87
2023-05-23T20:17:48.353Z,5.63
2023-05-23T20:20:16.537Z,8.57
2023-05-23T20:22:44.804Z,11.03
2023-05-23T20:25:13.099Z,7.87
2023-05-23T20:27:41.630Z,6.87
2023-05-23T20:30:12.880Z,9.73
2023-05-23T20:32:42.378Z,7.67
2023-05-23T20:35:10.675Z,7.37
2023-05-23T20:37:39.248Z,9.10
2023-05-23T20:40:10.911Z,6.63
2023-05-23T20:42:39.144Z,13.00
2023-05-23T20:45:08.520Z,7.73
2023-05-23T20:47:42.447Z,4.20
2023-05-23T20:50:12.678Z,10.13
2023-05-23T20:52:42.769Z,7.07
2023-05-23T20:55:11.748Z,5.20
2023-05-23T20:57:42.228Z,9.80
2023-05-23T21:00:14.154Z,9.27
2023-05-23T21:02:44.330Z,7.63
2023-05-23T21:05:14.716Z,8.07
2023-05-23T21:07:46.722Z,6.43
2023-05-23T21:10:14.967Z,11.63
2023-05-23T21:12:50.171Z,6.47
2023-05-23T21:15:19.057Z,6.67
2023-05-23T21:17:50.721Z,5.67
2023-05-23T21:20:20.681Z,8.10
2023-05-23T21:22:49.034Z,8.33
2023-05-23T21:25:17.501Z,4.90
2023-05-23T21:27:48.705Z,4.33
2023-05-23T21:30:17.189Z,10.17
2023-05-23T21:32:49.232Z,11.60
2023-05-23T21:35:19.666Z,7.33
2023-05-23T21:37:50.876Z,8.37
2023-05-23T21:40:19.281Z,8.03
2023-05-23T21:42:47.563Z,5.93
2023-05-23T21:45:15.780Z,8.80
2023-05-23T21:47:44.008Z,6.60
2023-05-23T21:50:13.736Z,3.73
2023-05-23T21:52:42.107Z,9.13
2023-05-23T21:55:10.513Z,5.67
2023-05-23T21:57:41.706Z,4.77
2023-05-23T22:00:12.848Z,10.07
2023-05-23T22:02:41.486Z,7.20
2023-05-23T22:05:13.471Z,9.27
2023-05-23T22:07:41.700Z,5.40
2023-05-23T22:10:12.735Z,5.63
2023-05-23T22:12:41.093Z,8.43
2023-05-23T22:15:10.465Z,6.03
2023-05-23T22:17:43.302Z,8.53
2023-05-23T22:20:14.824Z,7.20
2023-05-23T22:22:43.106Z,6.43
2023-05-23T22:25:12.413Z,12.80
2023-05-23T22:27:40.617Z,6.83
2023-05-23T22:30:12.676Z,6.80
2023-05-23T22:32:40.934Z,10.90
2023-05-23T22:35:12.899Z,7.63
2023-05-23T22:37:43.334Z,9.83
2023-05-23T22:40:12.004Z,8.60
2023-05-23T22:42:40.446Z,9.10
2023-05-23T22:45:10.125Z,4.70
2023-05-23T22:47:41.633Z,8.63
2023-05-23T22:50:10.624Z,3.60
2023-05-23T22:52:42.638Z,7.47
2023-05-23T22:55:11.358Z,8.23
2023-05-23T22:57:39.484Z,6.30
2023-05-23T23:00:13.526Z,8.80
2023-05-23T23:02:44.952Z,5.30
2023-05-23T23:05:15.717Z,14.33
2023-05-23T23:07:48.471Z,13.73
2023-05-23T23:10:16.708Z,11.17
2023-05-23T23:12:45.104Z,11.50
2023-05-23T23:15:13.409Z,8.03
2023-05-23T23:17:44.978Z,9.47
2023-05-23T23:20:17.340Z,13.07
2023-05-23T23:22:49.268Z,12.23
2023-05-23T23:25:18.958Z,9.53
2023-05-23T23:27:49.338Z,11.00
2023-05-23T23:30:17.507Z,5.67
2023-05-23T23:32:45.707Z,10.53
2023-05-23T23:35:13.900Z,11.17
2023-05-23T23:37:42.239Z,12.90
2023-05-23T23:40:15.195Z,10.00
2023-05-23T23:42:43.352Z,5.97
2023-05-23T23:45:13.982Z,11.53
2023-05-23T23:47:42.494Z,9.47
2023-05-23T23:50:14.023Z,12.17
2023-05-23T23:52:42.555Z,13.97
2023-05-23T23:55:11.163Z,8.83
2023-05-23T23:57:40.692Z,8.30
